Oakham, United Kingdom
Current Conditions -  °F | °C
As of 9:50 AM on Tuesday 27 Jan 2015 (Local Time) from EGXT Reporting Station
Clear Clear  
Wind Chill: 37°   Ceiling: Unl
Heat Index: 43°   Visibility: 6mi
Dew Point: 41°   Wind: 12mph
Humidity: 93%   Direction: 270°W
Pressure: 30.3"   Gusts: NA
Location:  52.67°N, 0.73°W
Report Text: EGXT 270950Z 27010KT CAVOK 06/05 Q1026 BLU
Loading
Personal Weather Stations






























Interactive Weather Map New forecast layout! Learn more

10-Day Weather Forecast

Advertisements
Track Severe Weather on mobile